Terminal Aerodrome Forecast
Issued by NWS Green Bay, WI

Home | Current Version | Previous Version | Text Only | Print | Product List | Glossary Off
Versions: 1 2 3 4 5 6 7 8 9 10 11 12 13 14 15 16 17 18 19 20 21 22 23

000
FTUS43 KGRB 251732
TAFGRB
TAF
KGRB 251732Z 2518/2618 16016G22KT P6SM SCT018 BKN080
      TEMPO 2518/2520 4SM -SHRA BR BKN018
     FM252000 18014G20KT 5SM -SHRA BR SCT015 BKN070
      TEMPO 2520/2524 2SM -TSRA BR BKN015CB
     FM260000 20010KT 5SM -SHRA BR SCT010 BKN040 OVC140
     FM260300 26012KT P6SM SCT025 BKN140
     FM260800 26013G18KT P6SM SCT025 BKN200
     FM261500 26016G24KT P6SM VCSH BKN035 OVC050=

USA.gov is the U.S. government's official web portal to all federal, state and local government web resources and services.